Time;durP1;ratioP1;P1;durP2;ratioP2;P2;SDS_P1;SDS_P2;PMS_P1;PMS_P2;Temp;Humidity;BMP_temperature;BMP_pressure;BME280_temperature;BME280_humidity;BME280_pressure;Samples;Min_cycle;Max_cycle;Signal;HPM_P1;HPM_P2
2021/01/25 00:02:07;;;;;;;3.53;1.00;;;5.00;99.90;;;;;;5046074;28;20055;-82
2021/01/25 00:04:33;;;;;;;4.30;1.10;;;5.00;99.90;;;;;;5066395;28;20064;-83
2021/01/25 00:07:00;;;;;;;7.75;1.00;;;5.00;99.90;;;;;;5064884;28;20052;-82
2021/01/25 00:09:26;;;;;;;4.45;0.93;;;4.90;99.90;;;;;;5063313;28;20098;-82
2021/01/25 00:11:52;;;;;;;10.20;0.90;;;4.90;99.90;;;;;;5059849;28;20065;-82
2021/01/25 00:14:19;;;;;;;7.15;0.70;;;4.80;99.90;;;;;;5048740;28;20045;-82
2021/01/25 00:16:45;;;;;;;6.45;1.23;;;4.80;99.90;;;;;;5065737;28;20117;-82
2021/01/25 00:19:12;;;;;;;6.05;1.45;;;4.80;99.90;;;;;;5067790;28;20080;-82
2021/01/25 00:21:38;;;;;;;6.85;1.10;;;4.80;99.90;;;;;;5067848;28;20067;-82
2021/01/25 00:24:05;;;;;;;7.30;1.00;;;4.80;99.90;;;;;;5063629;28;20064;-82
2021/01/25 00:26:32;;;;;;;5.35;1.25;;;4.80;99.90;;;;;;5045389;28;20052;-82
2021/01/25 00:28:58;;;;;;;11.32;0.90;;;4.80;99.90;;;;;;5043663;28;20061;-82
2021/01/25 00:31:24;;;;;;;4.85;0.90;;;4.80;99.90;;;;;;5052035;28;20114;-82
2021/01/25 00:33:51;;;;;;;7.50;0.90;;;4.80;99.90;;;;;;5059487;28;20080;-82
2021/01/25 00:36:17;;;;;;;4.10;0.80;;;4.90;99.90;;;;;;5032175;28;20463;-82
2021/01/25 00:38:44;;;;;;;4.03;1.05;;;4.90;99.90;;;;;;5044701;28;20483;-81
2021/01/25 00:41:10;;;;;;;6.32;0.82;;;5.00;99.90;;;;;;5043589;28;20057;-82
2021/01/25 00:43:36;;;;;;;3.80;0.85;;;5.10;99.90;;;;;;5046145;28;20048;-82
2021/01/25 00:46:03;;;;;;;4.68;0.60;;;5.10;99.90;;;;;;5027032;28;20048;-82
2021/01/25 00:48:29;;;;;;;5.70;0.70;;;5.10;99.90;;;;;;5044970;28;20422;-82
2021/01/25 00:50:56;;;;;;;3.50;0.43;;;5.10;99.90;;;;;;5021717;28;20131;-82
2021/01/25 00:53:22;;;;;;;4.25;0.73;;;5.10;99.90;;;;;;5030842;28;20061;-82
2021/01/25 00:55:49;;;;;;;2.58;0.50;;;5.10;99.90;;;;;;5031611;28;20041;-82
2021/01/25 00:58:15;;;;;;;5.10;0.90;;;5.10;99.90;;;;;;5076169;28;20467;-82
2021/01/25 01:00:41;;;;;;;7.72;0.80;;;5.10;99.90;;;;;;5046276;28;20437;-82
2021/01/25 01:03:08;;;;;;;3.72;0.68;;;5.10;99.90;;;;;;5040817;28;20044;-82
2021/01/25 01:05:34;;;;;;;13.55;1.15;;;5.00;99.90;;;;;;5042002;28;20414;-82
2021/01/25 01:08:02;;;;;;;3.95;0.70;;;5.00;99.90;;;;;;5059861;28;20042;-82
2021/01/25 01:10:29;;;;;;;7.03;1.47;;;5.10;99.90;;;;;;5038190;28;20431;-82
2021/01/25 01:12:55;;;;;;;8.27;1.33;;;5.10;99.90;;;;;;5042864;28;20045;-82
2021/01/25 01:15:22;;;;;;;8.77;1.27;;;5.10;99.90;;;;;;5046094;28;20118;-82
2021/01/25 01:17:48;;;;;;;5.00;0.85;;;5.10;99.90;;;;;;5045276;28;20052;-82
2021/01/25 01:20:15;;;;;;;8.10;0.80;;;5.10;99.90;;;;;;5049095;28;20063;-82
2021/01/25 01:22:44;;;;;;;13.98;1.63;;;5.10;99.90;;;;;;5063599;28;20467;-82
2021/01/25 01:25:11;;;;;;;7.43;0.93;;;5.20;99.90;;;;;;5049183;28;20045;-82
2021/01/25 01:27:37;;;;;;;6.38;0.90;;;5.20;99.90;;;;;;5080928;28;20064;-82
2021/01/25 01:30:05;;;;;;;6.03;0.80;;;5.20;99.90;;;;;;5048986;28;20112;-82
2021/01/25 01:32:32;;;;;;;;;;;5.20;99.90;;;;;;5047374;28;20052;-82
2021/01/25 01:34:59;;;;;;;9.57;0.90;;;5.20;99.90;;;;;;5081311;28;19971;-82
2021/01/25 01:37:25;;;;;;;9.95;0.73;;;5.20;99.90;;;;;;5048958;28;20426;-82
2021/01/25 01:39:52;;;;;;;4.22;0.75;;;5.20;99.90;;;;;;5047444;28;20418;-82
2021/01/25 01:42:19;;;;;;;7.47;1.05;;;5.20;99.90;;;;;;5047558;28;20483;-82
2021/01/25 01:44:45;;;;;;;7.45;0.80;;;5.20;99.90;;;;;;5043578;28;20053;-82
2021/01/25 01:47:22;;;;;;;9.77;1.52;;;5.20;99.90;;;;;;5046019;28;20045;-82
2021/01/25 01:49:50;;;;;;;4.45;1.00;;;5.10;99.90;;;;;;5064696;28;20121;-82
2021/01/25 01:52:17;;;;;;;6.25;0.90;;;5.20;99.90;;;;;;5053817;28;20108;-82
2021/01/25 01:54:44;;;;;;;3.85;0.93;;;5.20;99.90;;;;;;5069339;28;20053;-82
2021/01/25 01:57:10;;;;;;;4.45;0.80;;;5.20;99.90;;;;;;5051229;28;20045;-82
2021/01/25 01:59:37;;;;;;;4.93;0.70;;;5.20;99.90;;;;;;5053994;28;20107;-82
2021/01/25 02:02:03;;;;;;;6.88;0.90;;;5.20;99.90;;;;;;5063671;28;20038;-82
2021/01/25 02:04:32;;;;;;;4.85;0.57;;;5.10;99.90;;;;;;5058799;28;20052;-82
2021/01/25 02:07:01;;;;;;;3.33;0.60;;;5.00;99.90;;;;;;5040004;28;20053;-82
2021/01/25 02:09:29;;;;;;;4.93;0.90;;;5.00;99.90;;;;;;5039915;28;20818;-82
2021/01/25 02:11:56;;;;;;;6.60;0.60;;;4.90;99.90;;;;;;5047624;28;20102;-82
2021/01/25 02:14:24;;;;;;;4.82;0.70;;;4.90;99.90;;;;;;5059629;28;20491;-83
2021/01/25 02:16:50;;;;;;;5.22;1.15;;;4.80;99.90;;;;;;5042099;28;20107;-82
2021/01/25 02:19:56;;;;;;;5.25;0.70;;;4.80;99.90;;;;;;5035301;28;20065;-82
2021/01/25 02:22:38;;;;;;;5.72;1.30;;;4.70;99.90;;;;;;5041181;28;20054;-82
2021/01/25 02:25:35;;;;;;;5.93;1.10;;;4.70;99.90;;;;;;5047889;28;20045;-82
2021/01/25 02:28:02;;;;;;;11.05;1.20;;;4.70;99.90;;;;;;5053400;28;20049;-82
2021/01/25 02:30:28;;;;;;;6.03;0.80;;;4.70;99.90;;;;;;5053578;28;20463;-82
2021/01/25 02:32:56;;;;;;;5.43;0.85;;;4.70;99.90;;;;;;5060339;28;20382;-82
2021/01/25 02:35:23;;;;;;;9.48;1.52;;;4.70;99.90;;;;;;5046941;28;20099;-82
2021/01/25 02:37:55;;;;;;;3.90;0.80;;;4.70;99.90;;;;;;5047387;28;20045;-82
2021/01/25 02:40:24;;;;;;;6.38;1.25;;;4.70;99.90;;;;;;5075435;28;20114;-82
2021/01/25 02:42:53;;;;;;;6.10;0.90;;;4.70;99.90;;;;;;5043618;28;20156;-82
2021/01/25 02:45:21;;;;;;;4.97;0.88;;;4.60;99.90;;;;;;5035240;28;20454;-82
2021/01/25 02:47:48;;;;;;;5.32;0.73;;;4.60;99.90;;;;;;5058620;28;20053;-82
2021/01/25 02:50:15;;;;;;;6.95;1.00;;;4.60;99.90;;;;;;5038208;28;20050;-82
2021/01/25 02:52:41;;;;;;;7.35;1.40;;;4.60;99.90;;;;;;5028229;28;20050;-82
2021/01/25 02:55:09;;;;;;;6.53;0.98;;;4.60;99.90;;;;;;5024694;28;20091;-82
2021/01/25 02:57:37;;;;;;;8.38;1.20;;;4.60;99.90;;;;;;5077615;28;20261;-82
2021/01/25 03:00:10;;;;;;;9.10;1.27;;;4.60;99.90;;;;;;5042124;28;20053;-82
2021/01/25 03:02:38;;;;;;;6.70;1.08;;;4.60;99.90;;;;;;5045545;28;20479;-82
2021/01/25 03:05:06;;;;;;;11.70;1.63;;;4.60;99.90;;;;;;5059316;28;20046;-82
2021/01/25 03:07:33;;;;;;;14.57;1.95;;;4.60;99.90;;;;;;5046228;28;20364;-82
2021/01/25 03:10:00;;;;;;;9.52;1.23;;;4.50;99.90;;;;;;5040902;28;20045;-82
2021/01/25 03:12:27;;;;;;;7.25;1.20;;;4.50;99.90;;;;;;5045308;28;20053;-82
2021/01/25 03:14:55;;;;;;;5.35;1.58;;;4.50;99.90;;;;;;5044271;28;20037;-82
2021/01/25 03:17:21;;;;;;;10.15;1.40;;;4.50;99.90;;;;;;5034350;28;20044;-82
2021/01/25 03:19:48;;;;;;;7.57;1.40;;;4.50;99.90;;;;;;5044498;28;20136;-82
2021/01/25 03:22:14;;;;;;;5.28;1.38;;;4.50;99.90;;;;;;5046110;28;20364;-82
2021/01/25 03:24:41;;;;;;;5.65;1.17;;;4.40;99.90;;;;;;5062190;28;20352;-82
2021/01/25 03:27:07;;;;;;;6.80;1.33;;;4.40;99.90;;;;;;5044408;28;20064;-82
2021/01/25 03:29:35;;;;;;;9.65;1.70;;;4.40;99.90;;;;;;5040312;28;20076;-82
2021/01/25 03:32:02;;;;;;;6.80;1.40;;;4.40;99.90;;;;;;5037855;28;20037;-81
2021/01/25 03:34:29;;;;;;;7.82;1.20;;;4.40;99.90;;;;;;5044716;28;20128;-82
2021/01/25 03:36:55;;;;;;;11.02;1.30;;;4.30;99.90;;;;;;5044037;28;20048;-82
2021/01/25 03:39:22;;;;;;;8.07;2.00;;;4.30;99.90;;;;;;5035203;28;20703;-82
2021/01/25 03:41:48;;;;;;;8.85;1.02;;;4.30;99.90;;;;;;5067305;28;20044;-82
2021/01/25 03:44:15;;;;;;;12.65;1.30;;;4.30;99.90;;;;;;5060567;28;20045;-82
2021/01/25 03:46:46;;;;;;;10.27;1.70;;;4.30;99.90;;;;;;5063297;28;20049;-82
2021/01/25 03:49:14;;;;;;;3.63;1.00;;;4.30;99.90;;;;;;5037359;28;20113;-82
2021/01/25 03:51:40;;;;;;;8.73;1.13;;;4.30;99.90;;;;;;5045487;28;20471;-82
2021/01/25 03:54:09;;;;;;;6.53;1.40;;;4.20;99.90;;;;;;5046361;28;20053;-82
2021/01/25 03:56:36;;;;;;;10.07;1.40;;;4.20;99.90;;;;;;5044697;28;20136;-82
2021/01/25 03:59:02;;;;;;;6.65;1.30;;;4.20;99.90;;;;;;5046875;28;20049;-82
2021/01/25 04:01:29;;;;;;;6.55;0.93;;;4.20;99.90;;;;;;5045267;28;20132;-82
2021/01/25 04:03:56;;;;;;;5.50;0.93;;;4.20;99.90;;;;;;5046233;28;20446;-82
2021/01/25 04:06:22;;;;;;;7.90;1.10;;;4.20;99.90;;;;;;5059154;28;20471;-82
2021/01/25 04:08:48;;;;;;;3.63;1.10;;;4.20;99.90;;;;;;5043256;28;20104;-82
2021/01/25 04:11:16;;;;;;;6.63;1.23;;;4.10;99.90;;;;;;5043764;28;20041;-82
2021/01/25 04:13:43;;;;;;;10.40;1.20;;;4.10;99.90;;;;;;5064837;28;20048;-81
2021/01/25 04:16:10;;;;;;;5.88;1.20;;;4.00;99.90;;;;;;5046146;28;20545;-83
2021/01/25 04:18:36;;;;;;;5.25;1.20;;;4.00;99.90;;;;;;5063193;28;20056;-82
2021/01/25 04:21:03;;;;;;;7.22;1.33;;;4.00;99.90;;;;;;5045915;28;20478;-82
2021/01/25 04:23:29;;;;;;;4.18;1.13;;;4.00;99.90;;;;;;5045202;28;20045;-82
2021/01/25 04:25:56;;;;;;;5.55;1.20;;;3.90;99.90;;;;;;5047709;28;20072;-81
2021/01/25 04:28:23;;;;;;;6.43;1.35;;;3.90;99.90;;;;;;5045834;28;20056;-82
2021/01/25 04:30:49;;;;;;;6.30;1.20;;;3.90;99.90;;;;;;5043759;28;20037;-82
2021/01/25 04:33:15;;;;;;;4.28;1.13;;;3.80;99.90;;;;;;5037243;28;20486;-82
2021/01/25 04:35:42;;;;;;;7.20;1.48;;;3.80;99.90;;;;;;5057313;28;20478;-82
2021/01/25 04:38:09;;;;;;;5.07;1.27;;;3.80;99.90;;;;;;5046809;28;20033;-82
2021/01/25 04:40:35;;;;;;;4.20;1.15;;;3.80;99.90;;;;;;5044705;28;20060;-82
2021/01/25 04:43:03;;;;;;;5.28;0.93;;;3.70;99.90;;;;;;5042317;28;20052;-82
2021/01/25 04:45:30;;;;;;;3.72;1.10;;;3.70;99.90;;;;;;5044418;28;20052;-82
2021/01/25 04:47:57;;;;;;;5.57;1.40;;;3.70;99.90;;;;;;5041092;28;20049;-82
2021/01/25 04:50:25;;;;;;;5.60;1.20;;;3.70;99.90;;;;;;5044374;28;20068;-81
2021/01/25 04:52:52;;;;;;;5.25;1.27;;;3.70;99.90;;;;;;5050041;28;20114;-82
2021/01/25 04:55:19;;;;;;;5.18;1.40;;;3.60;99.90;;;;;;5040118;28;20434;-82
2021/01/25 04:57:46;;;;;;;6.32;1.67;;;3.60;99.90;;;;;;5050644;28;20049;-82
2021/01/25 05:00:16;;;;;;;9.23;1.30;;;3.60;99.90;;;;;;5061580;28;20306;-82
2021/01/25 05:02:42;;;;;;;6.15;1.23;;;3.60;99.90;;;;;;5063353;28;20037;-81
2021/01/25 05:05:10;;;;;;;5.00;1.70;;;3.60;99.90;;;;;;5037256;28;20049;-82
2021/01/25 05:07:37;;;;;;;4.00;1.27;;;3.60;99.90;;;;;;5025342;28;20057;-82
2021/01/25 05:10:08;;;;;;;6.20;1.20;;;3.60;99.90;;;;;;5042460;28;20045;-82
2021/01/25 05:12:49;;;;;;;7.30;1.00;;;3.70;99.90;;;;;;5048437;28;20567;-82
2021/01/25 05:15:33;;;;;;;10.48;1.73;;;3.70;99.90;;;;;;5026729;28;20081;-82
2021/01/25 05:18:06;;;;;;;3.00;1.10;;;3.70;99.90;;;;;;5024873;28;20547;-82
2021/01/25 05:20:33;;;;;;;7.30;1.23;;;3.70;99.90;;;;;;5028944;28;20111;-82
2021/01/25 05:23:11;;;;;;;5.72;1.10;;;3.60;99.90;;;;;;5027093;28;20038;-82
2021/01/25 05:25:38;;;;;;;8.50;1.20;;;3.60;99.90;;;;;;5025505;28;20046;-81
2021/01/25 05:28:07;;;;;;;4.45;1.40;;;3.60;99.90;;;;;;5041068;28;20103;-82
2021/01/25 05:30:34;;;;;;;4.97;1.42;;;3.60;99.90;;;;;;5029166;28;20041;-82
2021/01/25 05:33:01;;;;;;;7.38;1.25;;;3.60;99.90;;;;;;5017677;28;20054;-82
2021/01/25 05:35:30;;;;;;;6.50;1.23;;;3.50;99.90;;;;;;5012995;28;20057;-82
2021/01/25 05:38:02;;;;;;;5.68;0.90;;;3.50;99.90;;;;;;5030448;28;20041;-81
2021/01/25 05:40:31;;;;;;;8.52;1.25;;;3.50;99.90;;;;;;5043805;28;20052;-82
2021/01/25 05:42:58;;;;;;;4.72;1.15;;;3.50;99.90;;;;;;5046838;28;20053;-82
2021/01/25 05:45:28;;;;;;;8.32;1.85;;;3.40;99.90;;;;;;5047587;28;20088;-82
2021/01/25 05:47:59;;;;;;;6.32;1.60;;;3.50;99.90;;;;;;5032204;28;20091;-82
2021/01/25 05:50:31;;;;;;;5.07;1.83;;;3.40;99.90;;;;;;5043732;28;20058;-82
2021/01/25 05:53:00;;;;;;;5.90;1.40;;;3.40;99.90;;;;;;5044638;28;20057;-82
2021/01/25 05:55:27;;;;;;;4.95;1.17;;;3.40;99.90;;;;;;5044531;28;20482;-82
2021/01/25 05:57:54;;;;;;;6.78;1.73;;;3.40;99.90;;;;;;5024414;28;20143;-82
2021/01/25 06:00:21;;;;;;;5.40;1.38;;;3.40;99.90;;;;;;5042378;28;20098;-82
2021/01/25 06:02:50;;;;;;;6.68;1.13;;;3.40;99.90;;;;;;5048993;28;20040;-82
2021/01/25 06:05:40;;;;;;;7.25;1.85;;;3.40;99.90;;;;;;5043680;28;20133;-82
2021/01/25 06:08:37;;;;;;;9.23;1.90;;;3.30;99.90;;;;;;5020359;28;20112;-83
2021/01/25 06:11:20;;;;;;;7.72;1.63;;;3.30;99.90;;;;;;5034055;28;20434;-81
2021/01/25 06:14:25;;;;;;;8.35;1.90;;;3.30;99.90;;;;;;5053146;28;20041;-83
2021/01/25 06:16:51;;;;;;;5.30;1.65;;;3.30;99.90;;;;;;5052700;28;20433;-82
2021/01/25 06:19:25;;;;;;;6.15;1.83;;;3.20;99.90;;;;;;5063666;28;20068;-82
2021/01/25 06:21:51;;;;;;;5.82;1.90;;;3.20;99.90;;;;;;5028575;28;20049;-82
2021/01/25 06:24:20;;;;;;;5.00;2.10;;;3.20;99.90;;;;;;5027207;28;20427;-82
2021/01/25 06:26:49;;;;;;;5.78;2.17;;;3.20;99.90;;;;;;5026632;28;20054;-83
2021/01/25 06:29:20;;;;;;;8.00;2.20;;;3.10;99.90;;;;;;5034806;28;20507;-83
2021/01/25 06:31:57;;;;;;;5.50;2.08;;;3.10;99.90;;;;;;5029216;28;20041;-82
2021/01/25 06:34:26;;;;;;;7.50;2.40;;;3.10;99.90;;;;;;5044740;28;20049;-82
2021/01/25 06:36:53;;;;;;;6.82;3.22;;;3.10;99.90;;;;;;5021254;28;20097;-82
2021/01/25 06:39:31;;;;;;;6.90;2.55;;;3.10;99.90;;;;;;5027314;28;20156;-82
2021/01/25 06:42:05;;;;;;;7.40;2.40;;;3.00;99.90;;;;;;5034735;28;20044;-82
2021/01/25 06:44:33;;;;;;;7.90;2.75;;;3.00;99.90;;;;;;5043271;28;20103;-81
2021/01/25 06:47:02;;;;;;;9.63;2.40;;;3.00;99.90;;;;;;5035377;28;20454;-81
2021/01/25 06:49:30;;;;;;;5.60;2.38;;;3.00;99.90;;;;;;5066327;28;20098;-82
2021/01/25 06:51:59;;;;;;;10.63;2.67;;;3.00;99.90;;;;;;5005562;28;20124;-82
2021/01/25 06:54:26;;;;;;;6.70;2.95;;;2.90;99.90;;;;;;5042697;28;20342;-82
2021/01/25 06:56:58;;;;;;;8.20;2.45;;;2.90;99.90;;;;;;5044338;28;20413;-81
2021/01/25 06:59:27;;;;;;;5.60;2.80;;;2.90;99.90;;;;;;5037153;28;20539;-81
2021/01/25 07:01:55;;;;;;;4.50;2.70;;;2.90;99.90;;;;;;5046257;28;20049;-81
2021/01/25 07:04:28;;;;;;;5.60;2.70;;;2.90;99.90;;;;;;5050419;28;20113;-82
2021/01/25 07:06:55;;;;;;;6.22;2.63;;;2.90;99.90;;;;;;5034381;28;20051;-82
2021/01/25 07:09:33;;;;;;;8.73;2.85;;;2.90;99.90;;;;;;5026657;28;20045;-82
2021/01/25 07:12:04;;;;;;;9.52;2.60;;;2.90;99.90;;;;;;5052207;28;20041;-82
2021/01/25 07:14:32;;;;;;;6.07;2.33;;;2.90;99.90;;;;;;5056946;28;20037;-82
2021/01/25 07:17:00;;;;;;;8.57;3.15;;;2.90;99.90;;;;;;5030774;28;20071;-81
2021/01/25 07:19:27;;;;;;;6.70;2.90;;;2.90;99.90;;;;;;5029453;28;20051;-81
2021/01/25 07:21:55;;;;;;;7.72;2.75;;;2.90;99.90;;;;;;5046725;28;20048;-81
2021/01/25 07:24:23;;;;;;;8.05;2.88;;;2.80;99.90;;;;;;5046713;28;20084;-78
2021/01/25 07:26:55;;;;;;;6.85;2.38;;;2.90;99.90;;;;;;5043781;28;20103;-81
2021/01/25 07:29:22;;;;;;;8.00;2.83;;;2.90;99.90;;;;;;5027186;28;20123;-81
2021/01/25 07:31:49;;;;;;;5.80;2.70;;;2.80;99.90;;;;;;5058665;28;20045;-81
2021/01/25 07:34:16;;;;;;;4.38;2.60;;;2.80;99.90;;;;;;5033542;28;20106;-81
2021/01/25 07:36:43;;;;;;;5.28;2.60;;;2.80;99.90;;;;;;5030839;28;20053;-81
2021/01/25 07:39:14;;;;;;;6.63;2.50;;;2.80;99.90;;;;;;5038800;28;20456;-81
2021/01/25 07:41:42;;;;;;;6.43;2.92;;;2.80;99.90;;;;;;5039581;28;20056;-81
2021/01/25 07:44:10;;;;;;;7.22;2.75;;;2.80;99.90;;;;;;5027523;28;20099;-81
2021/01/25 07:46:37;;;;;;;8.27;2.67;;;2.80;99.90;;;;;;5021565;28;20069;-81
2021/01/25 07:49:08;;;;;;;5.38;2.60;;;2.70;99.90;;;;;;5022213;28;20171;-81
2021/01/25 07:51:36;;;;;;;6.50;2.42;;;2.70;99.90;;;;;;5031389;28;20118;-81
2021/01/25 07:54:04;;;;;;;4.43;2.28;;;2.70;99.90;;;;;;5053348;28;20044;-81
2021/01/25 07:56:31;;;;;;;8.30;2.67;;;2.80;99.90;;;;;;5042659;28;20045;-81
2021/01/25 07:59:06;;;;;;;4.97;2.13;;;2.80;99.90;;;;;;5040648;28;20051;-81
2021/01/25 08:02:06;;;;;;;6.43;2.28;;;2.80;99.90;;;;;;5042772;28;20056;-81
2021/01/25 08:04:37;;;;;;;5.75;2.30;;;2.80;99.90;;;;;;5060132;28;20057;-81
2021/01/25 08:07:04;;;;;;;5.00;2.75;;;2.80;99.90;;;;;;5055853;28;20071;-81
2021/01/25 08:09:37;;;;;;;3.78;2.33;;;2.80;99.90;;;;;;5047384;28;20106;-81
2021/01/25 08:12:04;;;;;;;4.75;2.17;;;2.80;99.90;;;;;;5053543;28;20044;-81
2021/01/25 08:14:44;;;;;;;4.38;2.28;;;2.80;99.90;;;;;;5044390;28;20368;-80
2021/01/25 08:17:33;;;;;;;5.30;2.22;;;2.90;99.90;;;;;;5055524;28;20084;-81
2021/01/25 08:20:01;;;;;;;;;;;2.90;99.90;;;;;;5059770;28;20048;-81
2021/01/25 08:22:38;;;;;;;4.38;2.40;;;2.90;99.90;;;;;;5066202;28;20327;-81
2021/01/25 08:25:05;;;;;;;7.07;2.22;;;2.90;99.90;;;;;;5063694;28;20044;-81
2021/01/25 08:27:35;;;;;;;3.83;2.03;;;3.00;99.90;;;;;;5046384;28;20060;-81
2021/01/25 08:30:11;;;;;;;6.30;1.83;;;3.00;99.90;;;;;;5071315;28;20044;-81
2021/01/25 08:32:42;;;;;;;5.72;2.17;;;3.00;99.90;;;;;;5061078;28;20135;-81
2021/01/25 08:35:10;;;;;;;5.97;2.00;;;3.10;99.90;;;;;;5061333;28;20131;-81
2021/01/25 08:37:37;;;;;;;4.53;1.77;;;3.10;99.90;;;;;;5073556;28;20052;-80
2021/01/25 08:40:22;;;;;;;5.03;2.00;;;3.10;99.90;;;;;;5061297;28;20107;-81
2021/01/25 08:42:49;;;;;;;5.35;2.53;;;3.10;99.90;;;;;;5066104;28;20139;-81
2021/01/25 08:45:25;;;;;;;2.03;1.67;;;3.10;99.90;;;;;;5065343;28;20036;-81
2021/01/25 08:48:00;;;;;;;8.07;2.40;;;3.20;99.90;;;;;;5052345;28;20106;-81
2021/01/25 08:50:28;;;;;;;6.30;2.33;;;3.20;99.90;;;;;;5028768;28;20045;-81
2021/01/25 08:53:03;;;;;;;3.70;2.15;;;3.20;99.90;;;;;;5050841;28;20052;-81
2021/01/25 08:55:42;;;;;;;5.60;2.53;;;3.30;99.90;;;;;;5070608;28;20433;-81
2021/01/25 08:58:30;;;;;;;5.30;2.58;;;3.30;99.90;;;;;;5071077;28;20101;-81
2021/01/25 09:00:58;;;;;;;4.78;2.20;;;3.40;99.90;;;;;;5051518;28;20041;-81
2021/01/25 09:03:25;;;;;;;7.07;2.35;;;3.40;99.90;;;;;;5043083;28;20470;-81
2021/01/25 09:05:54;;;;;;;6.97;2.45;;;3.40;99.90;;;;;;5058013;28;20114;-81
2021/01/25 09:08:25;;;;;;;5.35;2.17;;;3.50;99.90;;;;;;5065372;28;20483;-81
2021/01/25 09:10:51;;;;;;;6.75;2.97;;;3.50;99.90;;;;;;5069636;28;20478;-81
2021/01/25 09:13:18;;;;;;;6.43;2.25;;;3.60;99.90;;;;;;5081804;28;20055;-81
2021/01/25 09:15:45;;;;;;;5.80;2.42;;;3.60;99.90;;;;;;5070503;28;20048;-80
2021/01/25 09:18:12;;;;;;;12.48;2.50;;;3.70;99.90;;;;;;5054044;28;20041;-81
2021/01/25 09:20:39;;;;;;;6.57;2.70;;;3.80;99.90;;;;;;5070106;28;20040;-81
2021/01/25 09:23:06;;;;;;;7.07;2.88;;;3.80;99.90;;;;;;5068121;28;20103;-81
2021/01/25 09:25:33;;;;;;;4.90;2.10;;;3.90;99.90;;;;;;5053376;28;20044;-81
2021/01/25 09:27:59;;;;;;;6.13;2.38;;;3.90;99.90;;;;;;5035295;28;20059;-81
2021/01/25 09:30:28;;;;;;;4.43;2.45;;;4.00;99.90;;;;;;5065885;28;20699;-81
2021/01/25 09:32:55;;;;;;;5.40;2.42;;;4.10;99.90;;;;;;5060606;28;20550;-81
2021/01/25 09:35:23;;;;;;;8.50;3.42;;;4.20;99.90;;;;;;5046765;28;20041;-81
2021/01/25 09:37:49;;;;;;;4.47;2.40;;;4.30;99.90;;;;;;5065534;28;20048;-81
2021/01/25 09:40:16;;;;;;;3.70;2.08;;;4.30;99.90;;;;;;5045340;28;20072;-81
2021/01/25 09:42:43;;;;;;;5.50;2.00;;;4.40;99.90;;;;;;5050830;28;20467;-81
2021/01/25 09:45:13;;;;;;;3.67;2.50;;;4.50;99.90;;;;;;5063297;28;20037;-81
2021/01/25 09:47:40;;;;;;;7.57;2.58;;;4.60;99.90;;;;;;5048870;28;20129;-81
2021/01/25 09:50:13;;;;;;;4.38;2.38;;;4.60;99.90;;;;;;5064911;28;20533;-81
2021/01/25 09:52:41;;;;;;;6.13;2.25;;;4.70;99.90;;;;;;5051548;28;20052;-81
2021/01/25 09:55:09;;;;;;;4.57;2.28;;;4.80;99.90;;;;;;5050927;28;20058;-81
2021/01/25 09:57:36;;;;;;;4.53;2.20;;;4.90;99.90;;;;;;5071065;28;20397;-81
2021/01/25 10:00:05;;;;;;;4.53;2.40;;;4.90;99.90;;;;;;5051238;28;20057;-81
2021/01/25 10:02:31;;;;;;;;;;;5.00;99.90;;;;;;5054228;28;20470;-81
2021/01/25 10:04:58;;;;;;;3.38;2.30;;;5.00;99.90;;;;;;5068029;28;20655;-81
2021/01/25 10:07:24;;;;;;;5.63;2.15;;;5.10;99.90;;;;;;5068877;28;20365;-81
2021/01/25 10:09:54;;;;;;;5.05;2.38;;;5.10;99.90;;;;;;5070103;28;20059;-81
2021/01/25 10:12:22;;;;;;;4.10;3.10;;;5.20;99.90;;;;;;5047615;28;20044;-81
2021/01/25 10:14:49;;;;;;;6.15;4.13;;;5.30;99.90;;;;;;5053248;28;20049;-81
2021/01/25 10:17:16;;;;;;;7.40;3.60;;;5.30;99.90;;;;;;5048219;28;20047;-81
2021/01/25 10:19:43;;;;;;;3.83;2.15;;;5.40;99.90;;;;;;5061222;28;20040;-80
2021/01/25 10:22:10;;;;;;;4.32;2.50;;;5.50;99.90;;;;;;5051425;28;20087;-81
2021/01/25 10:24:36;;;;;;;5.40;1.95;;;5.60;99.90;;;;;;5066046;28;20059;-81
2021/01/25 10:27:03;;;;;;;5.15;1.95;;;5.60;99.90;;;;;;5053709;28;20044;-81
2021/01/25 10:29:29;;;;;;;3.72;1.55;;;5.70;99.90;;;;;;5059298;28;20323;-81
2021/01/25 10:31:55;;;;;;;3.53;2.10;;;5.80;99.90;;;;;;5060815;28;20121;-81
2021/01/25 10:34:22;;;;;;;8.82;2.63;;;5.80;99.90;;;;;;5065054;28;20129;-81
2021/01/25 10:36:52;;;;;;;4.85;2.13;;;5.80;99.90;;;;;;5048494;28;20045;-81
2021/01/25 10:39:19;;;;;;;4.38;1.65;;;6.00;99.90;;;;;;5063356;28;20051;-81
2021/01/25 10:41:46;;;;;;;4.13;2.70;;;6.00;99.90;;;;;;5047443;28;20494;-81
2021/01/25 10:44:15;;;;;;;4.97;2.70;;;6.00;99.90;;;;;;5071398;28;20040;-81
2021/01/25 10:46:42;;;;;;;4.15;1.90;;;6.10;99.90;;;;;;5062836;28;20048;-80
2021/01/25 10:49:09;;;;;;;3.70;2.28;;;6.10;99.90;;;;;;5080207;28;20095;-81
2021/01/25 10:51:35;;;;;;;7.20;1.75;;;6.20;99.90;;;;;;5045033;28;20056;-81
2021/01/25 10:54:02;;;;;;;4.65;1.45;;;6.20;99.90;;;;;;5025738;28;20628;-81
2021/01/25 10:56:29;;;;;;;5.75;1.50;;;6.30;99.90;;;;;;5052883;28;20045;-81
2021/01/25 10:58:55;;;;;;;6.60;1.30;;;6.30;99.90;;;;;;5040416;28;20366;-81
2021/01/25 11:01:21;;;;;;;4.05;1.67;;;6.40;99.90;;;;;;5065970;28;20064;-81
2021/01/25 11:03:48;;;;;;;4.70;1.85;;;6.40;99.90;;;;;;5047660;28;20044;-81
2021/01/25 11:06:15;;;;;;;4.00;1.15;;;6.40;99.90;;;;;;5050854;28;20064;-81
2021/01/25 11:08:42;;;;;;;3.97;2.70;;;6.40;99.90;;;;;;5063756;28;20536;-81
2021/01/25 11:11:09;;;;;;;2.65;1.65;;;6.50;99.90;;;;;;5066158;28;20045;-81
2021/01/25 11:13:36;;;;;;;2.33;1.50;;;6.50;99.90;;;;;;5056244;28;20048;-81
2021/01/25 11:16:02;;;;;;;4.88;1.50;;;6.60;99.90;;;;;;5064542;28;20044;-81
2021/01/25 11:18:29;;;;;;;4.70;1.50;;;6.60;99.90;;;;;;5041928;28;20052;-80
2021/01/25 11:20:58;;;;;;;4.82;1.85;;;6.60;99.90;;;;;;5065672;28;20508;-81
2021/01/25 11:23:24;;;;;;;;;;;6.60;99.90;;;;;;5071772;28;20462;-81
2021/01/25 11:25:51;;;;;;;3.65;1.38;;;6.70;99.90;;;;;;5052984;28;19920;-81
2021/01/25 11:28:17;;;;;;;3.28;1.52;;;6.70;99.90;;;;;;5055266;28;20051;-81
2021/01/25 11:30:44;;;;;;;3.88;1.50;;;6.80;99.90;;;;;;5074447;28;20117;-81
2021/01/25 11:33:10;;;;;;;9.75;1.73;;;6.90;99.90;;;;;;5047042;28;20132;-80
2021/01/25 11:35:37;;;;;;;4.32;1.00;;;6.90;99.90;;;;;;5043836;28;20053;-81
2021/01/25 11:41:51;;;;;;;3.92;1.45;;;7.00;99.90;;;;;;5061321;28;20051;-80
2021/01/25 11:44:17;;;;;;;5.45;1.30;;;7.10;99.90;;;;;;5038544;28;20478;-81
2021/01/25 11:46:44;;;;;;;4.60;1.33;;;7.10;99.90;;;;;;5066263;28;20055;-81
2021/01/25 11:49:11;;;;;;;3.80;1.38;;;7.10;99.90;;;;;;5070273;28;20101;-81
2021/01/25 11:51:38;;;;;;;3.90;1.20;;;7.20;99.90;;;;;;5048869;28;20053;-81
2021/01/25 11:54:04;;;;;;;4.47;1.55;;;7.20;99.90;;;;;;5044987;28;20052;-80
2021/01/25 11:56:30;;;;;;;4.05;1.00;;;7.20;99.90;;;;;;5046930;28;20210;-81
2021/01/25 11:58:57;;;;;;;1.20;0.85;;;7.30;99.90;;;;;;5038142;28;20385;-81
2021/01/25 12:01:23;;;;;;;2.58;1.00;;;7.30;99.90;;;;;;5043732;28;20060;-81
2021/01/25 12:03:50;;;;;;;2.20;0.98;;;7.30;99.90;;;;;;5057278;28;20044;-81
2021/01/25 12:06:16;;;;;;;3.40;0.95;;;7.30;99.90;;;;;;5043026;28;20053;-81
2021/01/25 12:08:43;;;;;;;3.40;1.30;;;7.30;99.90;;;;;;5069107;28;20498;-81
2021/01/25 12:11:09;;;;;;;3.53;0.98;;;7.30;99.90;;;;;;5037470;28;20044;-81
2021/01/25 12:13:36;;;;;;;3.42;1.30;;;7.30;99.90;;;;;;5040787;28;20057;-81
2021/01/25 12:16:02;;;;;;;3.60;1.35;;;7.40;99.90;;;;;;5019320;28;20049;-81
2021/01/25 12:18:28;;;;;;;2.70;0.90;;;7.40;99.90;;;;;;5031475;28;20045;-81
2021/01/25 12:20:55;;;;;;;2.70;0.85;;;7.40;99.90;;;;;;5056486;28;20486;-81
2021/01/25 12:23:22;;;;;;;4.40;1.17;;;7.50;99.90;;;;;;5039711;28;20106;-81
2021/01/25 12:25:49;;;;;;;1.77;0.90;;;7.50;99.90;;;;;;5069997;28;20087;-81
2021/01/25 12:28:16;;;;;;;4.15;1.00;;;7.50;99.90;;;;;;5044551;28;20048;-81
2021/01/25 12:30:42;;;;;;;3.85;1.25;;;7.50;99.90;;;;;;5039279;28;20057;-81
2021/01/25 12:33:09;;;;;;;3.03;1.02;;;7.60;99.90;;;;;;5053188;28;20441;-81
2021/01/25 12:35:37;;;;;;;3.28;1.10;;;7.60;99.90;;;;;;5036967;28;20052;-81
2021/01/25 12:38:05;;;;;;;2.25;0.98;;;7.70;99.90;;;;;;5055807;28;20055;-81
2021/01/25 12:40:32;;;;;;;7.47;1.10;;;7.70;99.90;;;;;;5053904;28;20803;-81
2021/01/25 12:42:59;;;;;;;2.53;1.10;;;7.80;99.90;;;;;;5049563;28;20576;-81
2021/01/25 12:45:26;;;;;;;4.85;1.35;;;7.90;99.90;;;;;;5043938;28;20041;-81
2021/01/25 12:47:53;;;;;;;4.32;1.10;;;7.90;99.90;;;;;;5055664;28;20044;-82
2021/01/25 12:50:20;;;;;;;2.35;1.23;;;7.90;99.90;;;;;;5043435;28;20048;-82
2021/01/25 12:52:50;;;;;;;5.40;1.50;;;8.00;99.90;;;;;;5047964;28;20048;-82
2021/01/25 12:55:17;;;;;;;7.47;1.13;;;8.00;99.90;;;;;;5047139;28;20099;-82
2021/01/25 12:57:45;;;;;;;2.42;1.02;;;8.00;99.90;;;;;;5042733;28;20527;-82
2021/01/25 13:00:15;;;;;;;2.40;0.75;;;8.00;99.90;;;;;;5040321;28;20060;-81
2021/01/25 13:02:41;;;;;;;3.13;1.20;;;8.00;99.90;;;;;;5054289;28;20091;-81
2021/01/25 13:05:09;;;;;;;2.42;1.00;;;7.90;99.90;;;;;;5030289;28;20110;-81
2021/01/25 13:07:35;;;;;;;6.05;0.90;;;7.90;99.90;;;;;;5036501;28;20388;-81
2021/01/25 13:10:03;;;;;;;2.83;0.90;;;7.80;99.90;;;;;;5022016;28;20049;-81